North Sunderland, United Kingdom
Current Conditions -  °F | °C
As of 7:50 AM on Monday 26 Jan 2015 (Local Time) from EGQM Reporting Station
Broken Clouds Broken Clouds  
Wind Chill: 36°   Ceiling: 3300
Heat Index: 41°   Visibility: 6mi
Dew Point: 37°   Wind: 8mph
Humidity: 87%   Direction: 180°S
Pressure: 30"   Gusts: NA
Location:  55.58°N, 1.66°W
Report Text: EGQM 260750Z AUTO 18007KT 9999 BKN033/// 05/03 Q1016
Loading
Personal Weather Stations






























Interactive Weather Map New forecast layout! Learn more

10-Day Weather Forecast

Advertisements
Track Severe Weather on mobile